Tucson International Airport
KTUS : now visible

Airfield :











YOU CAN JOIN US ON...

 
LOGIN :

Register | Disclaimer

   EN    FR    IT 

 









Legend :    VFR   Marginal VFR   IFR   Intensive IFR   Very Intensive IFR
Visi :
Ceiling :
>= 8 km
>= 3000ft
5 to 8 km
1000 to 3000 ft
1500m to 5 km
500 to 1000 ft
800 to 1500m
200 to 500 ft
< 800m
< 200 ft
Symbols :   Thunderstorms  Fog  Heavy snow  Heavy precipitations  Wind > 20 kt







- Airport Elevation : 2643 ft
- IATA code : TUS


KTUS - Tucson International

CURRENT METAR :
  • 191353Z 15009KT 10SM CLR 28/16 A2997 RMK AO2 SLP093 T02780156

EXPIRED METARs :
  • 191253Z 15008KT 10SM CLR 27/15 A2996 RMK AO2 SLP089 T02720150
  • 191153Z 16009KT 10SM CLR 28/16 A2994 RMK AO2 SLP083 T02780156 10317 20278 55003

TAF KTUS
Valid from the 19 at 13:00 until the 20 at 12:00 UTC


191232Z 1913/2012 16008KT P6SM BKN200
FM191600 22006KT P6SM FEW150 SCT250
FM192000 31011G18KT P6SM SCT130 BKN250
FM200400 21008KT P6SM SCT130 BKN200
FM200800 16007KT P6SM SCT130 BKN250
KZAB FIR / North America



MET'MAP, your aeronautical weather chart ! - Copyright ORBIFLY December 2007 - Disclaimer

ORBIFLY MET'MAP TEAM :

Programming & Development : Alexandra Zaïnal
Concept & Development : Baudouin d'Aumeries
Co-Development & Prog : Marc-Olivier Méhu
Technical & hardware support : Manuel Goepfert

Contact : metmap@orbifly.com




SOURCES & CREDITS :

   NOAA       Earth
Advisory